This is the latest recevied weather packets stored in our database for station/object SM6VFJ-1. If no packets are shown the sender has not sent any weather packets the latest 10 day(s).
| Time | Temp. | Humidity | Pressure | Rain* | Wind** | Luminosity | Snow |
|---|---|---|---|---|---|---|---|
| 1778208338 | 0° C | 77% | 1022.5 hPa | 0 mm | - | 0 W/m² | - |
| 1778206536 | -0.56° C | 77% | 1022.2 hPa | 0 mm | - | 0 W/m² | - |
| 1778193959 | 2.78° C | 65% | 1020.5 hPa | 0 mm | - | 0 W/m² | - |
| 1778173224 | 13.89° C | 27% | 1017.5 hPa | 0 mm | - | 183 W/m² | - |
| 1778168727 | 13.33° C | 33% | 1017.3 hPa | 0 mm | - | 373 W/m² | - |
| 1778164214 | 13.33° C | 34% | 1017 hPa | 0 mm | - | 524 W/m² | - |
| 1778159703 | 13.89° C | 41% | 1016.5 hPa | 0 mm | - | 659 W/m² | - |
| 1778157964 | 13.89° C | 37% | 1016.4 hPa | 0 mm | - | 700 W/m² | - |
| 1778148949 | 12.78° C | 42% | 1015.8 hPa | 0 mm | - | 747 W/m² | - |
| 1778146240 | 12.22° C | 47% | 1015.5 hPa | 0 mm | - | 710 W/m² | - |
| 1778139910 | 9.44° C | 63% | 1015.1 hPa | 0 mm | - | 543 W/m² | - |
| 1778139005 | 8.89° C | 64% | 1015 hPa | 0 mm | - | 513 W/m² | - |
| 1778137257 | 7.78° C | 68% | 1015 hPa | 0 mm | - | 452 W/m² | - |
| 1778136352 | 7.22° C | 69% | 1014.9 hPa | 0 mm | - | 415 W/m² | - |
| 1778135448 | 6.67° C | 69% | 1014.8 hPa | 0 mm | - | 380 W/m² | - |
| 1778130938 | 4.44° C | 74% | 1014.3 hPa | 0 mm | - | 146 W/m² | - |
| 1778130032 | 3.89° C | 74% | 1014 hPa | 0 mm | - | 125 W/m² | - |
| 1778127316 | 3.33° C | 75% | 1013.7 hPa | 0 mm | - | 58 W/m² | - |
| 1778121058 | 2.78° C | 76% | 1012.9 hPa | 0 mm | - | 0 W/m² | - |
| 1778117450 | 3.89° C | 76% | 1012.6 hPa | 0 mm | - | 0 W/m² | - |
| 1778116545 | 3.89° C | 75% | 1012.5 hPa | 0 mm | - | 0 W/m² | - |
| 1778115641 | 4.44° C | 73% | 1012.4 hPa | 0 mm | - | 0 W/m² | - |
| 1778109323 | 7.22° C | 63% | 1012.2 hPa | 0 mm | - | 0 W/m² | - |
| 1778108419 | 7.22° C | 62% | 1012 hPa | 0 mm | - | 0 W/m² | - |
| 1778106617 | 7.78° C | 60% | 1012.1 hPa | 0 mm | - | 0 W/m² | - |
* Rain latest hour (hover to see other rain measurements)
** Current wind speed in m/s (hover to see current wind gust speed)